South Montesano, Washington
Current Conditions -  °F | °C
As of 4:53 AM on Wednesday 22 Oct 2014 (Local Time) from KSHN Reporting Station
Light Rain Light Rain  
Wind Chill: 53°   Ceiling: 5500
Heat Index: 53°   Visibility: 5mi
Dew Point: 51°   Wind: 12mph
Humidity: 93%   Direction: 130°SE
Pressure: 29.62"   Gusts: NA
Location:  47.555°N, 123.746°W
Report Text: KSHN 221153Z AUTO 13010KT 5SM -RA BR FEW022 BKN055 OVC070 12/11 A2962 RMK AO2 SLP032 P0009 60023 70040 T01170106 10144 20117 58003 TSNO
Loading
Personal Weather Stations






























Interactive Weather Map
Tropical Storm Tracking
New forecast layout! Learn more

10-Day Weather Forecast

Advertisements
Track Severe Weather on mobile